sensor_id;sensor_type;location;lat;lon;timestamp;P1;durP1;ratioP1;P2;durP2;ratioP2
37843;SDS011;63793;57.632;18.292;2023-03-23T00:01:04;26.70;;;15.30;;
37843;SDS011;63793;57.632;18.292;2023-03-23T00:03:31;19.35;;;13.13;;
37843;SDS011;63793;57.632;18.292;2023-03-23T00:06:00;22.45;;;15.32;;
37843;SDS011;63793;57.632;18.292;2023-03-23T00:08:35;18.75;;;14.88;;
37843;SDS011;63793;57.632;18.292;2023-03-23T00:11:17;27.20;;;15.18;;
37843;SDS011;63793;57.632;18.292;2023-03-23T00:13:46;25.83;;;16.92;;
37843;SDS011;63793;57.632;18.292;2023-03-23T00:16:17;17.83;;;13.95;;
37843;SDS011;63793;57.632;18.292;2023-03-23T00:18:54;22.35;;;16.08;;
37843;SDS011;63793;57.632;18.292;2023-03-23T00:21:21;24.85;;;15.85;;
37843;SDS011;63793;57.632;18.292;2023-03-23T00:24:02;21.15;;;14.50;;
37843;SDS011;63793;57.632;18.292;2023-03-23T00:26:32;22.73;;;16.08;;
37843;SDS011;63793;57.632;18.292;2023-03-23T00:29:05;24.27;;;16.40;;
37843;SDS011;63793;57.632;18.292;2023-03-23T00:31:44;21.13;;;14.90;;
37843;SDS011;63793;57.632;18.292;2023-03-23T00:34:11;22.70;;;14.50;;
37843;SDS011;63793;57.632;18.292;2023-03-23T00:36:44;19.95;;;14.60;;
37843;SDS011;63793;57.632;18.292;2023-03-23T00:39:22;16.33;;;13.43;;
37843;SDS011;63793;57.632;18.292;2023-03-23T00:41:50;18.80;;;13.38;;
37843;SDS011;63793;57.632;18.292;2023-03-23T00:44:16;17.77;;;14.27;;
37843;SDS011;63793;57.632;18.292;2023-03-23T00:46:43;19.83;;;12.82;;
37843;SDS011;63793;57.632;18.292;2023-03-23T00:49:13;21.08;;;13.52;;
37843;SDS011;63793;57.632;18.292;2023-03-23T00:51:40;22.88;;;14.55;;
37843;SDS011;63793;57.632;18.292;2023-03-23T00:54:07;16.48;;;12.65;;
37843;SDS011;63793;57.632;18.292;2023-03-23T00:56:34;16.60;;;11.63;;
37843;SDS011;63793;57.632;18.292;2023-03-23T00:59:00;19.20;;;13.90;;
37843;SDS011;63793;57.632;18.292;2023-03-23T01:01:27;23.25;;;12.43;;
37843;SDS011;63793;57.632;18.292;2023-03-23T01:03:53;19.52;;;12.85;;
37843;SDS011;63793;57.632;18.292;2023-03-23T01:06:28;17.40;;;13.20;;
37843;SDS011;63793;57.632;18.292;2023-03-23T01:09:01;15.85;;;13.80;;
37843;SDS011;63793;57.632;18.292;2023-03-23T01:11:28;16.98;;;13.43;;
37843;SDS011;63793;57.632;18.292;2023-03-23T01:13:54;17.75;;;12.65;;
37843;SDS011;63793;57.632;18.292;2023-03-23T01:16:20;20.38;;;12.55;;
37843;SDS011;63793;57.632;18.292;2023-03-23T01:18:46;19.60;;;11.75;;
37843;SDS011;63793;57.632;18.292;2023-03-23T01:21:13;17.38;;;11.77;;
37843;SDS011;63793;57.632;18.292;2023-03-23T01:23:41;17.40;;;12.55;;
37843;SDS011;63793;57.632;18.292;2023-03-23T01:26:15;16.52;;;11.85;;
37843;SDS011;63793;57.632;18.292;2023-03-23T01:28:46;17.08;;;11.55;;
37843;SDS011;63793;57.632;18.292;2023-03-23T01:31:13;18.50;;;10.60;;
37843;SDS011;63793;57.632;18.292;2023-03-23T01:33:44;10.05;;;8.95;;
37843;SDS011;63793;57.632;18.292;2023-03-23T01:36:15;24.00;;;11.23;;
37843;SDS011;63793;57.632;18.292;2023-03-23T01:38:46;13.25;;;9.50;;
37843;SDS011;63793;57.632;18.292;2023-03-23T01:41:14;13.68;;;10.73;;
37843;SDS011;63793;57.632;18.292;2023-03-23T01:46:33;16.17;;;9.55;;
37843;SDS011;63793;57.632;18.292;2023-03-23T01:49:02;12.05;;;8.38;;
37843;SDS011;63793;57.632;18.292;2023-03-23T01:51:40;12.32;;;8.30;;
37843;SDS011;63793;57.632;18.292;2023-03-23T01:54:17;15.55;;;8.70;;
37843;SDS011;63793;57.632;18.292;2023-03-23T01:56:48;14.23;;;11.88;;
37843;SDS011;63793;57.632;18.292;2023-03-23T01:59:19;13.88;;;10.48;;
37843;SDS011;63793;57.632;18.292;2023-03-23T02:01:51;10.23;;;8.02;;
37843;SDS011;63793;57.632;18.292;2023-03-23T02:04:19;11.90;;;7.88;;
37843;SDS011;63793;57.632;18.292;2023-03-23T02:06:48;13.27;;;8.68;;
37843;SDS011;63793;57.632;18.292;2023-03-23T02:09:18;12.75;;;9.23;;
37843;SDS011;63793;57.632;18.292;2023-03-23T02:11:46;16.60;;;9.40;;
37843;SDS011;63793;57.632;18.292;2023-03-23T02:14:15;14.18;;;9.65;;
37843;SDS011;63793;57.632;18.292;2023-03-23T02:22:06;14.27;;;9.18;;
37843;SDS011;63793;57.632;18.292;2023-03-23T02:25:10;14.68;;;10.60;;
37843;SDS011;63793;57.632;18.292;2023-03-23T02:33:11;14.60;;;10.20;;
37843;SDS011;63793;57.632;18.292;2023-03-23T02:35:52;12.23;;;9.45;;
37843;SDS011;63793;57.632;18.292;2023-03-23T02:38:26;19.20;;;8.65;;
37843;SDS011;63793;57.632;18.292;2023-03-23T02:40:56;10.15;;;8.45;;
37843;SDS011;63793;57.632;18.292;2023-03-23T02:43:27;13.90;;;10.27;;
37843;SDS011;63793;57.632;18.292;2023-03-23T02:45:56;15.48;;;10.23;;
37843;SDS011;63793;57.632;18.292;2023-03-23T02:48:24;10.88;;;8.05;;
37843;SDS011;63793;57.632;18.292;2023-03-23T02:53:20;13.95;;;8.52;;
37843;SDS011;63793;57.632;18.292;2023-03-23T02:55:51;15.43;;;8.80;;
37843;SDS011;63793;57.632;18.292;2023-03-23T02:58:22;11.65;;;8.18;;
37843;SDS011;63793;57.632;18.292;2023-03-23T03:00:51;12.13;;;8.82;;
37843;SDS011;63793;57.632;18.292;2023-03-23T03:03:20;11.85;;;7.85;;
37843;SDS011;63793;57.632;18.292;2023-03-23T03:06:07;17.27;;;8.60;;
37843;SDS011;63793;57.632;18.292;2023-03-23T03:09:26;11.90;;;7.00;;
37843;SDS011;63793;57.632;18.292;2023-03-23T03:11:52;11.55;;;7.90;;
37843;SDS011;63793;57.632;18.292;2023-03-23T03:14:25;13.32;;;8.35;;
37843;SDS011;63793;57.632;18.292;2023-03-23T03:17:23;8.93;;;6.55;;
37843;SDS011;63793;57.632;18.292;2023-03-23T03:19:57;10.60;;;7.63;;
37843;SDS011;63793;57.632;18.292;2023-03-23T03:22:33;8.90;;;6.28;;
37843;SDS011;63793;57.632;18.292;2023-03-23T03:25:02;8.00;;;7.05;;
37843;SDS011;63793;57.632;18.292;2023-03-23T03:27:30;9.18;;;7.45;;
37843;SDS011;63793;57.632;18.292;2023-03-23T03:30:21;12.48;;;8.52;;
37843;SDS011;63793;57.632;18.292;2023-03-23T03:32:52;12.02;;;7.90;;
37843;SDS011;63793;57.632;18.292;2023-03-23T03:35:21;14.45;;;6.88;;
37843;SDS011;63793;57.632;18.292;2023-03-23T03:37:49;11.07;;;6.75;;
37843;SDS011;63793;57.632;18.292;2023-03-23T03:40:17;13.63;;;5.97;;
37843;SDS011;63793;57.632;18.292;2023-03-23T03:42:45;12.05;;;7.35;;
37843;SDS011;63793;57.632;18.292;2023-03-23T03:45:14;14.77;;;6.97;;
37843;SDS011;63793;57.632;18.292;2023-03-23T03:47:42;12.70;;;7.10;;
37843;SDS011;63793;57.632;18.292;2023-03-23T03:50:08;19.15;;;6.35;;
37843;SDS011;63793;57.632;18.292;2023-03-23T03:52:35;13.88;;;6.30;;
37843;SDS011;63793;57.632;18.292;2023-03-23T03:55:01;11.52;;;5.90;;
37843;SDS011;63793;57.632;18.292;2023-03-23T03:57:30;21.52;;;6.47;;
37843;SDS011;63793;57.632;18.292;2023-03-23T03:59:56;14.77;;;6.85;;
37843;SDS011;63793;57.632;18.292;2023-03-23T04:02:43;9.55;;;5.45;;
37843;SDS011;63793;57.632;18.292;2023-03-23T04:05:14;8.27;;;5.57;;
37843;SDS011;63793;57.632;18.292;2023-03-23T04:07:42;13.95;;;5.10;;
37843;SDS011;63793;57.632;18.292;2023-03-23T04:10:08;11.80;;;5.53;;
37843;SDS011;63793;57.632;18.292;2023-03-23T04:12:36;9.43;;;4.90;;
37843;SDS011;63793;57.632;18.292;2023-03-23T04:15:37;28.08;;;5.97;;
37843;SDS011;63793;57.632;18.292;2023-03-23T04:18:04;14.13;;;5.18;;
37843;SDS011;63793;57.632;18.292;2023-03-23T04:20:31;18.30;;;7.13;;
37843;SDS011;63793;57.632;18.292;2023-03-23T04:22:57;21.00;;;6.55;;
37843;SDS011;63793;57.632;18.292;2023-03-23T04:25:24;12.50;;;5.72;;
37843;SDS011;63793;57.632;18.292;2023-03-23T04:27:52;10.75;;;5.07;;
37843;SDS011;63793;57.632;18.292;2023-03-23T04:30:22;7.90;;;5.80;;
37843;SDS011;63793;57.632;18.292;2023-03-23T04:33:08;11.52;;;4.72;;
37843;SDS011;63793;57.632;18.292;2023-03-23T04:35:41;10.25;;;5.20;;
37843;SDS011;63793;57.632;18.292;2023-03-23T04:38:37;16.10;;;6.78;;
37843;SDS011;63793;57.632;18.292;2023-03-23T04:41:10;16.02;;;5.38;;
37843;SDS011;63793;57.632;18.292;2023-03-23T04:43:47;10.95;;;7.00;;
37843;SDS011;63793;57.632;18.292;2023-03-23T04:46:30;14.13;;;5.32;;
37843;SDS011;63793;57.632;18.292;2023-03-23T04:49:00;16.75;;;6.80;;
37843;SDS011;63793;57.632;18.292;2023-03-23T04:51:31;11.48;;;6.43;;
37843;SDS011;63793;57.632;18.292;2023-03-23T04:54:09;11.15;;;5.35;;
37843;SDS011;63793;57.632;18.292;2023-03-23T04:56:37;8.60;;;5.40;;
37843;SDS011;63793;57.632;18.292;2023-03-23T04:59:09;15.30;;;8.13;;
37843;SDS011;63793;57.632;18.292;2023-03-23T05:01:43;13.98;;;6.47;;
37843;SDS011;63793;57.632;18.292;2023-03-23T05:04:20;14.38;;;7.38;;
37843;SDS011;63793;57.632;18.292;2023-03-23T05:07:09;14.90;;;8.02;;
37843;SDS011;63793;57.632;18.292;2023-03-23T05:09:41;12.93;;;7.93;;
37843;SDS011;63793;57.632;18.292;2023-03-23T05:12:11;17.85;;;9.23;;
37843;SDS011;63793;57.632;18.292;2023-03-23T05:14:57;18.65;;;11.32;;
37843;SDS011;63793;57.632;18.292;2023-03-23T05:17:25;16.05;;;9.25;;
37843;SDS011;63793;57.632;18.292;2023-03-23T05:19:55;16.80;;;9.82;;
37843;SDS011;63793;57.632;18.292;2023-03-23T05:22:51;20.33;;;11.40;;
37843;SDS011;63793;57.632;18.292;2023-03-23T05:25:26;20.13;;;12.05;;
37843;SDS011;63793;57.632;18.292;2023-03-23T05:27:58;26.52;;;13.70;;
37843;SDS011;63793;57.632;18.292;2023-03-23T05:30:47;29.15;;;13.60;;
37843;SDS011;63793;57.632;18.292;2023-03-23T05:33:15;23.77;;;14.93;;
37843;SDS011;63793;57.632;18.292;2023-03-23T05:35:51;21.77;;;14.85;;
37843;SDS011;63793;57.632;18.292;2023-03-23T05:38:22;26.67;;;16.35;;
37843;SDS011;63793;57.632;18.292;2023-03-23T05:40:49;22.00;;;14.80;;
37843;SDS011;63793;57.632;18.292;2023-03-23T05:43:20;26.73;;;17.15;;
37843;SDS011;63793;57.632;18.292;2023-03-23T05:46:06;25.90;;;16.15;;
37843;SDS011;63793;57.632;18.292;2023-03-23T05:48:34;26.42;;;17.02;;
37843;SDS011;63793;57.632;18.292;2023-03-23T05:51:00;31.48;;;19.35;;
37843;SDS011;63793;57.632;18.292;2023-03-23T05:53:28;27.20;;;17.70;;
37843;SDS011;63793;57.632;18.292;2023-03-23T05:56:00;31.13;;;20.20;;
37843;SDS011;63793;57.632;18.292;2023-03-23T05:58:54;31.95;;;16.95;;
37843;SDS011;63793;57.632;18.292;2023-03-23T06:01:20;28.13;;;16.83;;
37843;SDS011;63793;57.632;18.292;2023-03-23T06:03:46;27.33;;;18.50;;
37843;SDS011;63793;57.632;18.292;2023-03-23T06:06:19;27.58;;;17.70;;
37843;SDS011;63793;57.632;18.292;2023-03-23T06:09:00;29.98;;;17.08;;
37843;SDS011;63793;57.632;18.292;2023-03-23T06:11:46;27.15;;;18.10;;
37843;SDS011;63793;57.632;18.292;2023-03-23T06:14:38;31.25;;;18.02;;
37843;SDS011;63793;57.632;18.292;2023-03-23T06:17:05;30.27;;;18.98;;
37843;SDS011;63793;57.632;18.292;2023-03-23T06:19:31;29.08;;;18.65;;
37843;SDS011;63793;57.632;18.292;2023-03-23T06:22:04;34.83;;;19.45;;
37843;SDS011;63793;57.632;18.292;2023-03-23T06:25:00;35.55;;;20.55;;
37843;SDS011;63793;57.632;18.292;2023-03-23T06:27:33;38.13;;;23.48;;
37843;SDS011;63793;57.632;18.292;2023-03-23T06:30:02;33.72;;;21.15;;
37843;SDS011;63793;57.632;18.292;2023-03-23T06:32:30;36.10;;;22.88;;
37843;SDS011;63793;57.632;18.292;2023-03-23T06:34:57;39.42;;;20.90;;
37843;SDS011;63793;57.632;18.292;2023-03-23T06:37:52;35.97;;;22.25;;
37843;SDS011;63793;57.632;18.292;2023-03-23T06:40:27;37.38;;;22.40;;
37843;SDS011;63793;57.632;18.292;2023-03-23T06:42:58;38.13;;;23.33;;
37843;SDS011;63793;57.632;18.292;2023-03-23T06:45:47;36.83;;;23.88;;
37843;SDS011;63793;57.632;18.292;2023-03-23T06:48:33;38.40;;;24.15;;
37843;SDS011;63793;57.632;18.292;2023-03-23T06:50:59;36.92;;;21.95;;
37843;SDS011;63793;57.632;18.292;2023-03-23T06:53:27;38.30;;;21.70;;
37843;SDS011;63793;57.632;18.292;2023-03-23T06:55:55;33.08;;;21.23;;
37843;SDS011;63793;57.632;18.292;2023-03-23T06:58:21;41.95;;;24.00;;
37843;SDS011;63793;57.632;18.292;2023-03-23T07:00:53;37.60;;;23.40;;
37843;SDS011;63793;57.632;18.292;2023-03-23T07:03:27;36.60;;;23.95;;
37843;SDS011;63793;57.632;18.292;2023-03-23T07:05:54;35.72;;;22.38;;
37843;SDS011;63793;57.632;18.292;2023-03-23T07:08:23;37.00;;;23.60;;
37843;SDS011;63793;57.632;18.292;2023-03-23T07:10:53;38.30;;;25.00;;
37843;SDS011;63793;57.632;18.292;2023-03-23T07:13:24;37.72;;;21.23;;
37843;SDS011;63793;57.632;18.292;2023-03-23T07:15:54;36.90;;;22.00;;
37843;SDS011;63793;57.632;18.292;2023-03-23T07:18:20;33.58;;;21.52;;
37843;SDS011;63793;57.632;18.292;2023-03-23T07:20:51;38.55;;;22.98;;
37843;SDS011;63793;57.632;18.292;2023-03-23T07:23:20;36.05;;;23.55;;
37843;SDS011;63793;57.632;18.292;2023-03-23T07:25:53;35.20;;;21.48;;
37843;SDS011;63793;57.632;18.292;2023-03-23T07:28:24;35.20;;;20.98;;
37843;SDS011;63793;57.632;18.292;2023-03-23T07:30:53;41.30;;;21.27;;
37843;SDS011;63793;57.632;18.292;2023-03-23T07:33:19;36.42;;;21.13;;
37843;SDS011;63793;57.632;18.292;2023-03-23T07:35:47;30.83;;;19.95;;
37843;SDS011;63793;57.632;18.292;2023-03-23T07:38:15;34.10;;;21.58;;
37843;SDS011;63793;57.632;18.292;2023-03-23T07:43:16;38.42;;;23.65;;
37843;SDS011;63793;57.632;18.292;2023-03-23T07:46:05;43.53;;;26.05;;
37843;SDS011;63793;57.632;18.292;2023-03-23T07:48:41;37.50;;;23.08;;
37843;SDS011;63793;57.632;18.292;2023-03-23T07:51:07;45.67;;;25.90;;
37843;SDS011;63793;57.632;18.292;2023-03-23T07:53:34;40.72;;;23.90;;
37843;SDS011;63793;57.632;18.292;2023-03-23T07:56:13;51.50;;;26.92;;
37843;SDS011;63793;57.632;18.292;2023-03-23T07:59:05;43.72;;;26.60;;
37843;SDS011;63793;57.632;18.292;2023-03-23T08:01:33;32.88;;;23.15;;
37843;SDS011;63793;57.632;18.292;2023-03-23T08:04:26;38.08;;;21.48;;
37843;SDS011;63793;57.632;18.292;2023-03-23T08:07:15;41.30;;;24.33;;
37843;SDS011;63793;57.632;18.292;2023-03-23T08:09:51;35.58;;;21.30;;
37843;SDS011;63793;57.632;18.292;2023-03-23T08:12:33;27.95;;;20.35;;
37843;SDS011;63793;57.632;18.292;2023-03-23T08:15:14;39.20;;;22.77;;
37843;SDS011;63793;57.632;18.292;2023-03-23T08:17:57;29.60;;;20.50;;
37843;SDS011;63793;57.632;18.292;2023-03-23T08:20:52;33.70;;;21.30;;
37843;SDS011;63793;57.632;18.292;2023-03-23T08:23:47;34.83;;;20.25;;
37843;SDS011;63793;57.632;18.292;2023-03-23T08:26:19;36.10;;;20.73;;
37843;SDS011;63793;57.632;18.292;2023-03-23T08:28:58;35.60;;;22.88;;
37843;SDS011;63793;57.632;18.292;2023-03-23T08:31:44;35.50;;;21.08;;
37843;SDS011;63793;57.632;18.292;2023-03-23T08:34:29;36.22;;;20.73;;
37843;SDS011;63793;57.632;18.292;2023-03-23T08:37:08;36.20;;;22.20;;
37843;SDS011;63793;57.632;18.292;2023-03-23T08:39:54;33.17;;;22.20;;
37843;SDS011;63793;57.632;18.292;2023-03-23T08:42:37;34.10;;;22.15;;
37843;SDS011;63793;57.632;18.292;2023-03-23T08:45:14;37.50;;;24.00;;
37843;SDS011;63793;57.632;18.292;2023-03-23T08:48:09;40.97;;;23.20;;
37843;SDS011;63793;57.632;18.292;2023-03-23T08:50:54;35.28;;;22.10;;
37843;SDS011;63793;57.632;18.292;2023-03-23T08:53:20;39.30;;;23.25;;
37843;SDS011;63793;57.632;18.292;2023-03-23T08:55:46;34.95;;;23.13;;
37843;SDS011;63793;57.632;18.292;2023-03-23T08:58:20;37.63;;;22.90;;
37843;SDS011;63793;57.632;18.292;2023-03-23T09:01:05;36.25;;;23.63;;
37843;SDS011;63793;57.632;18.292;2023-03-23T09:04:10;39.42;;;23.83;;
37843;SDS011;63793;57.632;18.292;2023-03-23T09:06:54;33.53;;;22.00;;
37843;SDS011;63793;57.632;18.292;2023-03-23T09:09:21;34.65;;;21.42;;
37843;SDS011;63793;57.632;18.292;2023-03-23T09:11:47;28.08;;;18.98;;
37843;SDS011;63793;57.632;18.292;2023-03-23T09:14:12;29.00;;;18.23;;
37843;SDS011;63793;57.632;18.292;2023-03-23T09:16:38;30.25;;;17.88;;
37843;SDS011;63793;57.632;18.292;2023-03-23T09:19:05;24.83;;;18.85;;
37843;SDS011;63793;57.632;18.292;2023-03-23T09:21:33;28.80;;;15.85;;
37843;SDS011;63793;57.632;18.292;2023-03-23T09:24:01;25.02;;;16.83;;
37843;SDS011;63793;57.632;18.292;2023-03-23T09:26:27;23.90;;;16.42;;
37843;SDS011;63793;57.632;18.292;2023-03-23T09:28:53;19.08;;;13.82;;
37843;SDS011;63793;57.632;18.292;2023-03-23T09:31:18;19.92;;;12.43;;
37843;SDS011;63793;57.632;18.292;2023-03-23T09:33:48;19.75;;;12.50;;
37843;SDS011;63793;57.632;18.292;2023-03-23T09:36:17;16.60;;;12.20;;
37843;SDS011;63793;57.632;18.292;2023-03-23T09:38:46;18.85;;;11.35;;
37843;SDS011;63793;57.632;18.292;2023-03-23T09:46:32;18.15;;;11.57;;
37843;SDS011;63793;57.632;18.292;2023-03-23T09:49:23;18.08;;;11.65;;
37843;SDS011;63793;57.632;18.292;2023-03-23T09:51:55;16.77;;;12.73;;
37843;SDS011;63793;57.632;18.292;2023-03-23T09:54:40;16.88;;;11.57;;
37843;SDS011;63793;57.632;18.292;2023-03-23T10:02:39;18.75;;;12.63;;
37843;SDS011;63793;57.632;18.292;2023-03-23T10:07:56;15.35;;;10.70;;
37843;SDS011;63793;57.632;18.292;2023-03-23T10:10:24;15.50;;;11.07;;
37843;SDS011;63793;57.632;18.292;2023-03-23T10:13:02;15.57;;;11.05;;
37843;SDS011;63793;57.632;18.292;2023-03-23T10:15:52;14.13;;;10.00;;
37843;SDS011;63793;57.632;18.292;2023-03-23T10:18:27;23.77;;;12.07;;
37843;SDS011;63793;57.632;18.292;2023-03-23T10:20:59;13.60;;;10.38;;
37843;SDS011;63793;57.632;18.292;2023-03-23T10:26:23;11.48;;;9.35;;
37843;SDS011;63793;57.632;18.292;2023-03-23T10:29:14;13.05;;;9.05;;
37843;SDS011;63793;57.632;18.292;2023-03-23T10:32:03;12.85;;;9.07;;
37843;SDS011;63793;57.632;18.292;2023-03-23T10:34:35;13.13;;;9.38;;
37843;SDS011;63793;57.632;18.292;2023-03-23T10:37:11;11.68;;;10.07;;
37843;SDS011;63793;57.632;18.292;2023-03-23T10:39:51;14.40;;;10.10;;
37843;SDS011;63793;57.632;18.292;2023-03-23T10:42:33;11.43;;;8.32;;
37843;SDS011;63793;57.632;18.292;2023-03-23T10:50:48;8.60;;;7.67;;
37843;SDS011;63793;57.632;18.292;2023-03-23T10:53:23;11.35;;;8.70;;
37843;SDS011;63793;57.632;18.292;2023-03-23T10:56:00;10.07;;;6.88;;
37843;SDS011;63793;57.632;18.292;2023-03-23T10:58:30;9.20;;;8.20;;
37843;SDS011;63793;57.632;18.292;2023-03-23T11:00:59;8.73;;;7.00;;
37843;SDS011;63793;57.632;18.292;2023-03-23T11:06:43;7.60;;;6.28;;
37843;SDS011;63793;57.632;18.292;2023-03-23T11:09:03;5.20;;;4.32;;
37843;SDS011;63793;57.632;18.292;2023-03-23T11:11:40;7.80;;;4.20;;
37843;SDS011;63793;57.632;18.292;2023-03-23T11:14:50;6.55;;;5.40;;
37843;SDS011;63793;57.632;18.292;2023-03-23T11:17:00;4.68;;;4.18;;
37843;SDS011;63793;57.632;18.292;2023-03-23T11:19:28;6.45;;;5.35;;
37843;SDS011;63793;57.632;18.292;2023-03-23T11:22:19;5.93;;;4.40;;
37843;SDS011;63793;57.632;18.292;2023-03-23T11:24:45;7.60;;;4.43;;
37843;SDS011;63793;57.632;18.292;2023-03-23T11:27:13;5.80;;;4.15;;
37843;SDS011;63793;57.632;18.292;2023-03-23T11:29:53;6.60;;;4.95;;
37843;SDS011;63793;57.632;18.292;2023-03-23T11:32:24;4.38;;;3.80;;
37843;SDS011;63793;57.632;18.292;2023-03-23T11:34:59;4.28;;;3.88;;
37843;SDS011;63793;57.632;18.292;2023-03-23T11:37:40;4.80;;;3.53;;
37843;SDS011;63793;57.632;18.292;2023-03-23T11:42:42;4.88;;;4.18;;
37843;SDS011;63793;57.632;18.292;2023-03-23T11:50:56;4.57;;;3.92;;
37843;SDS011;63793;57.632;18.292;2023-03-23T11:56:19;4.78;;;3.78;;
37843;SDS011;63793;57.632;18.292;2023-03-23T11:58:54;3.35;;;2.97;;
37843;SDS011;63793;57.632;18.292;2023-03-23T12:01:25;3.10;;;2.70;;
37843;SDS011;63793;57.632;18.292;2023-03-23T12:04:30;3.90;;;2.97;;
37843;SDS011;63793;57.632;18.292;2023-03-23T12:07:21;3.33;;;2.42;;
37843;SDS011;63793;57.632;18.292;2023-03-23T12:09:58;3.92;;;2.78;;
37843;SDS011;63793;57.632;18.292;2023-03-23T12:23:21;4.85;;;3.85;;
37843;SDS011;63793;57.632;18.292;2023-03-23T12:34:21;4.80;;;2.78;;
37843;SDS011;63793;57.632;18.292;2023-03-23T12:47:52;4.97;;;4.57;;
37843;SDS011;63793;57.632;18.292;2023-03-23T12:50:30;4.53;;;3.72;;
37843;SDS011;63793;57.632;18.292;2023-03-23T13:03:33;3.67;;;2.80;;
37843;SDS011;63793;57.632;18.292;2023-03-23T13:11:44;4.45;;;3.85;;
37843;SDS011;63793;57.632;18.292;2023-03-23T13:14:18;3.92;;;3.45;;
37843;SDS011;63793;57.632;18.292;2023-03-23T13:16:55;5.40;;;4.57;;
37843;SDS011;63793;57.632;18.292;2023-03-23T13:22:17;3.78;;;3.40;;
37843;SDS011;63793;57.632;18.292;2023-03-23T13:25:01;4.20;;;3.33;;
37843;SDS011;63793;57.632;18.292;2023-03-23T13:27:31;4.80;;;4.03;;
37843;SDS011;63793;57.632;18.292;2023-03-23T13:29:57;5.22;;;3.30;;
37843;SDS011;63793;57.632;18.292;2023-03-23T13:32:44;4.28;;;3.60;;
37843;SDS011;63793;57.632;18.292;2023-03-23T13:35:13;2.67;;;2.45;;
37843;SDS011;63793;57.632;18.292;2023-03-23T13:37:45;2.33;;;2.13;;
37843;SDS011;63793;57.632;18.292;2023-03-23T13:40:26;4.03;;;2.60;;
37843;SDS011;63793;57.632;18.292;2023-03-23T13:42:57;3.47;;;2.78;;
37843;SDS011;63793;57.632;18.292;2023-03-23T13:48:02;2.63;;;2.42;;
37843;SDS011;63793;57.632;18.292;2023-03-23T13:59:06;5.25;;;2.78;;
37843;SDS011;63793;57.632;18.292;2023-03-23T14:04:52;3.60;;;3.30;;
37843;SDS011;63793;57.632;18.292;2023-03-23T14:07:20;3.92;;;3.53;;
37843;SDS011;63793;57.632;18.292;2023-03-23T14:09:45;3.47;;;3.00;;
37843;SDS011;63793;57.632;18.292;2023-03-23T14:12:14;3.80;;;3.40;;
37843;SDS011;63793;57.632;18.292;2023-03-23T14:14:47;3.60;;;3.20;;
37843;SDS011;63793;57.632;18.292;2023-03-23T14:17:24;4.63;;;4.07;;
37843;SDS011;63793;57.632;18.292;2023-03-23T14:19:52;6.40;;;4.50;;
37843;SDS011;63793;57.632;18.292;2023-03-23T14:22:28;5.40;;;4.88;;
37843;SDS011;63793;57.632;18.292;2023-03-23T14:24:59;5.22;;;4.70;;
37843;SDS011;63793;57.632;18.292;2023-03-23T14:27:34;5.63;;;4.03;;
37843;SDS011;63793;57.632;18.292;2023-03-23T14:30:00;6.45;;;4.97;;
37843;SDS011;63793;57.632;18.292;2023-03-23T14:32:47;5.95;;;5.10;;
37843;SDS011;63793;57.632;18.292;2023-03-23T14:40:12;5.18;;;4.38;;
37843;SDS011;63793;57.632;18.292;2023-03-23T14:42:41;8.93;;;5.70;;
37843;SDS011;63793;57.632;18.292;2023-03-23T14:45:10;7.13;;;5.38;;
37843;SDS011;63793;57.632;18.292;2023-03-23T14:47:42;6.35;;;5.50;;
37843;SDS011;63793;57.632;18.292;2023-03-23T14:52:51;9.35;;;6.63;;
37843;SDS011;63793;57.632;18.292;2023-03-23T14:55:18;8.65;;;6.60;;
37843;SDS011;63793;57.632;18.292;2023-03-23T14:57:46;7.10;;;6.32;;
37843;SDS011;63793;57.632;18.292;2023-03-23T15:00:33;7.63;;;6.05;;
37843;SDS011;63793;57.632;18.292;2023-03-23T15:03:02;8.73;;;6.88;;
37843;SDS011;63793;57.632;18.292;2023-03-23T15:05:32;7.07;;;6.15;;
37843;SDS011;63793;57.632;18.292;2023-03-23T15:08:06;6.10;;;5.43;;
37843;SDS011;63793;57.632;18.292;2023-03-23T15:10:37;8.05;;;6.25;;
37843;SDS011;63793;57.632;18.292;2023-03-23T15:13:04;6.20;;;5.45;;
37843;SDS011;63793;57.632;18.292;2023-03-23T15:15:31;6.25;;;5.57;;
37843;SDS011;63793;57.632;18.292;2023-03-23T15:17:59;8.10;;;6.45;;
37843;SDS011;63793;57.632;18.292;2023-03-23T15:20:30;7.32;;;6.57;;
37843;SDS011;63793;57.632;18.292;2023-03-23T15:23:13;10.45;;;7.25;;
37843;SDS011;63793;57.632;18.292;2023-03-23T15:25:46;10.00;;;7.38;;
37843;SDS011;63793;57.632;18.292;2023-03-23T15:28:18;10.30;;;8.15;;
37843;SDS011;63793;57.632;18.292;2023-03-23T15:30:47;8.45;;;6.45;;
37843;SDS011;63793;57.632;18.292;2023-03-23T15:33:18;8.93;;;7.50;;
37843;SDS011;63793;57.632;18.292;2023-03-23T15:35:51;9.70;;;8.10;;
37843;SDS011;63793;57.632;18.292;2023-03-23T15:38:25;9.57;;;8.00;;
37843;SDS011;63793;57.632;18.292;2023-03-23T15:41:00;9.25;;;6.95;;
37843;SDS011;63793;57.632;18.292;2023-03-23T15:43:32;9.18;;;7.57;;
37843;SDS011;63793;57.632;18.292;2023-03-23T15:45:59;10.10;;;6.40;;
37843;SDS011;63793;57.632;18.292;2023-03-23T15:48:46;8.60;;;6.55;;
37843;SDS011;63793;57.632;18.292;2023-03-23T15:51:31;8.90;;;7.53;;
37843;SDS011;63793;57.632;18.292;2023-03-23T15:53:58;7.68;;;5.72;;
37843;SDS011;63793;57.632;18.292;2023-03-23T15:56:24;8.60;;;6.65;;
37843;SDS011;63793;57.632;18.292;2023-03-23T15:58:50;9.02;;;7.13;;
37843;SDS011;63793;57.632;18.292;2023-03-23T16:01:19;10.90;;;8.57;;
37843;SDS011;63793;57.632;18.292;2023-03-23T16:03:51;10.05;;;9.02;;
37843;SDS011;63793;57.632;18.292;2023-03-23T16:06:22;10.57;;;9.52;;
37843;SDS011;63793;57.632;18.292;2023-03-23T16:08:53;10.00;;;8.23;;
37843;SDS011;63793;57.632;18.292;2023-03-23T16:11:21;9.43;;;8.43;;
37843;SDS011;63793;57.632;18.292;2023-03-23T16:13:50;10.88;;;9.55;;
37843;SDS011;63793;57.632;18.292;2023-03-23T16:16:18;13.50;;;10.70;;
37843;SDS011;63793;57.632;18.292;2023-03-23T16:18:48;14.40;;;10.43;;
37843;SDS011;63793;57.632;18.292;2023-03-23T16:21:15;14.38;;;10.65;;
37843;SDS011;63793;57.632;18.292;2023-03-23T16:23:42;12.70;;;10.15;;
37843;SDS011;63793;57.632;18.292;2023-03-23T16:26:12;12.27;;;10.15;;
37843;SDS011;63793;57.632;18.292;2023-03-23T16:28:40;12.95;;;10.18;;
37843;SDS011;63793;57.632;18.292;2023-03-23T16:31:07;14.20;;;10.82;;
37843;SDS011;63793;57.632;18.292;2023-03-23T16:33:34;12.45;;;9.73;;
37843;SDS011;63793;57.632;18.292;2023-03-23T16:36:02;14.13;;;10.15;;
37843;SDS011;63793;57.632;18.292;2023-03-23T16:38:29;14.90;;;10.20;;
37843;SDS011;63793;57.632;18.292;2023-03-23T16:40:56;13.00;;;10.05;;
37843;SDS011;63793;57.632;18.292;2023-03-23T16:43:23;12.38;;;9.82;;
37843;SDS011;63793;57.632;18.292;2023-03-23T16:45:50;13.52;;;9.93;;
37843;SDS011;63793;57.632;18.292;2023-03-23T16:48:21;15.73;;;10.82;;
37843;SDS011;63793;57.632;18.292;2023-03-23T16:50:49;15.75;;;11.52;;
37843;SDS011;63793;57.632;18.292;2023-03-23T16:53:17;13.18;;;9.02;;
37843;SDS011;63793;57.632;18.292;2023-03-23T16:55:44;17.33;;;12.43;;
37843;SDS011;63793;57.632;18.292;2023-03-23T16:58:14;11.95;;;9.55;;
37843;SDS011;63793;57.632;18.292;2023-03-23T17:00:44;13.00;;;9.77;;